createdAt,value
2022-08-21T00:02:53.515Z,16.26
2022-08-21T00:05:56.811Z,16.13
2022-08-21T00:09:06.559Z,16.46
2022-08-21T00:12:10.405Z,16.23
2022-08-21T00:15:17.248Z,17.20
2022-08-21T00:18:21.316Z,17.06
2022-08-21T00:21:24.555Z,15.72
2022-08-21T00:24:29.508Z,15.68
2022-08-21T00:27:32.917Z,15.88
2022-08-21T00:30:36.288Z,15.88
2022-08-21T00:33:39.990Z,15.74
2022-08-21T00:36:43.562Z,15.65
2022-08-21T00:39:49.508Z,16.01
2022-08-21T00:42:53.730Z,15.57
2022-08-21T00:45:58.288Z,15.64
2022-08-21T00:49:01.499Z,15.70
2022-08-21T00:52:06.882Z,16.07
2022-08-21T00:55:13.710Z,15.62
2022-08-21T00:58:18.740Z,15.43
2022-08-21T01:01:24.922Z,15.73
2022-08-21T01:04:28.677Z,15.64
2022-08-21T01:07:32.440Z,15.52
2022-08-21T01:10:38.255Z,15.25
2022-08-21T01:13:46.791Z,15.32
2022-08-21T01:16:53.552Z,15.31
2022-08-21T01:19:59.844Z,15.36
2022-08-21T01:23:06.748Z,15.23
2022-08-21T01:26:10.807Z,15.13
2022-08-21T01:29:18.723Z,15.17
2022-08-21T01:32:22.334Z,15.13
2022-08-21T01:35:25.458Z,15.09
2022-08-21T01:38:31.052Z,16.06
2022-08-21T01:41:35.005Z,15.17
2022-08-21T01:44:38.319Z,15.23
2022-08-21T01:47:41.866Z,15.11
2022-08-21T01:50:45.114Z,16.03
2022-08-21T01:53:49.985Z,15.14
2022-08-21T01:56:55.847Z,15.19
2022-08-21T01:59:59.154Z,15.15
2022-08-21T02:03:02.661Z,16.39
2022-08-21T02:06:07.767Z,15.10
2022-08-21T02:09:13.744Z,15.20
2022-08-21T02:12:17.676Z,14.82
2022-08-21T02:15:21.310Z,14.85
2022-08-21T02:18:24.549Z,16.13
2022-08-21T02:21:27.992Z,16.07
2022-08-21T02:24:33.332Z,16.62
2022-08-21T02:27:44.243Z,15.28
2022-08-21T02:30:49.814Z,15.12
2022-08-21T02:33:53.264Z,15.44
2022-08-21T02:36:58.732Z,14.99
2022-08-21T02:40:05.440Z,14.99
2022-08-21T02:43:09.811Z,15.49
2022-08-21T02:46:17.072Z,15.11
2022-08-21T02:49:20.370Z,14.95
2022-08-21T02:52:25.118Z,16.37
2022-08-21T02:55:33.102Z,14.96
2022-08-21T02:58:39.621Z,14.89
2022-08-21T03:01:43.423Z,14.91
2022-08-21T03:04:46.946Z,15.28
2022-08-21T03:07:50.977Z,14.55
2022-08-21T03:10:55.871Z,14.67
2022-08-21T03:13:59.100Z,14.60
2022-08-21T03:17:02.401Z,14.54
2022-08-21T03:20:07.491Z,14.56
2022-08-21T03:23:13.215Z,14.55
2022-08-21T03:26:19.815Z,14.61
2022-08-21T03:29:23.049Z,16.02
2022-08-21T03:34:30.819Z,15.14
2022-08-21T03:37:34.199Z,15.84
2022-08-21T03:40:37.772Z,15.35
2022-08-21T03:43:41.118Z,15.10
2022-08-21T03:46:44.432Z,15.15
2022-08-21T03:49:49.015Z,14.91
2022-08-21T03:52:52.238Z,14.88
2022-08-21T03:55:56.331Z,14.81
2022-08-21T03:58:59.854Z,15.10
2022-08-21T04:02:06.768Z,15.65
2022-08-21T04:05:13.319Z,15.01
2022-08-21T04:08:29.240Z,14.82
2022-08-21T04:11:32.653Z,14.90
2022-08-21T04:14:35.956Z,14.85
2022-08-21T04:17:39.104Z,15.78
2022-08-21T04:20:50.235Z,15.23
2022-08-21T04:23:57.512Z,14.78
2022-08-21T04:27:00.698Z,14.87
2022-08-21T04:30:05.482Z,15.02
2022-08-21T04:33:11.200Z,14.78
2022-08-21T04:36:18.147Z,-143.47
2022-08-21T04:39:42.423Z,-143.47
2022-08-21T04:42:50.536Z,-143.47
2022-08-21T04:45:55.713Z,-143.47
2022-08-21T04:48:59.111Z,-143.47
2022-08-21T04:52:03.386Z,-143.47
2022-08-21T04:55:09.399Z,-143.47
2022-08-21T04:58:15.568Z,-143.47
2022-08-21T05:01:23.413Z,-143.47
2022-08-21T05:04:28.673Z,-143.47
2022-08-21T05:07:42.367Z,-143.47
2022-08-21T05:10:47.988Z,-143.47
2022-08-21T05:13:54.975Z,-143.47
2022-08-21T05:17:01.184Z,-143.47
2022-08-21T05:20:05.839Z,-143.47
2022-08-21T05:23:10.041Z,-143.47
2022-08-21T05:26:18.368Z,-143.47
2022-08-21T05:29:22.665Z,-143.47
2022-08-21T05:32:28.696Z,-143.47
2022-08-21T05:35:34.459Z,-143.47
2022-08-21T05:38:37.877Z,-143.47
2022-08-21T05:41:44.284Z,-143.47
2022-08-21T05:44:47.666Z,-143.47
2022-08-21T05:47:54.832Z,-143.47
2022-08-21T05:50:58.460Z,-143.47
2022-08-21T05:54:01.836Z,-143.47
2022-08-21T05:57:10.612Z,-143.47
2022-08-21T06:00:17.644Z,-143.47
2022-08-21T06:03:25.063Z,-143.47
2022-08-21T06:06:28.756Z,-143.47
2022-08-21T06:09:32.470Z,-143.47
2022-08-21T06:12:37.147Z,-143.47
2022-08-21T06:15:45.046Z,-143.47
2022-08-21T06:18:57.456Z,-143.47
2022-08-21T06:22:06.216Z,-143.47
2022-08-21T06:25:11.562Z,-143.47
2022-08-21T06:28:21.848Z,-143.47
2022-08-21T06:31:28.709Z,-143.47
2022-08-21T06:34:36.495Z,-143.47
2022-08-21T06:37:39.877Z,-143.47
2022-08-21T06:40:57.893Z,15.14
2022-08-21T06:44:01.852Z,15.59
2022-08-21T06:47:05.302Z,15.21
2022-08-21T06:50:10.011Z,15.15
2022-08-21T06:53:17.829Z,15.47
2022-08-21T06:56:22.374Z,15.09
2022-08-21T06:59:25.885Z,15.31
2022-08-21T07:02:30.525Z,14.94
2022-08-21T07:05:34.957Z,15.34
2022-08-21T07:08:40.452Z,15.41
2022-08-21T07:11:47.849Z,15.55
2022-08-21T07:14:51.274Z,15.60
2022-08-21T07:17:54.872Z,15.50
2022-08-21T07:20:58.259Z,16.07
2022-08-21T07:24:01.744Z,16.63
2022-08-21T07:27:12.631Z,17.12
2022-08-21T07:30:28.339Z,15.40
2022-08-21T07:33:36.688Z,15.54
2022-08-21T07:36:39.824Z,16.08
2022-08-21T07:39:43.797Z,-143.47
2022-08-21T07:42:51.007Z,-143.47
2022-08-21T07:45:55.694Z,-143.47
2022-08-21T07:48:58.981Z,-143.47
2022-08-21T07:52:02.531Z,-143.47
2022-08-21T07:55:07.033Z,-143.47
2022-08-21T07:58:11.919Z,-143.47
2022-08-21T08:01:15.460Z,-143.47
2022-08-21T08:04:22.196Z,-143.47
2022-08-21T08:07:28.255Z,-143.47
2022-08-21T08:10:31.640Z,-143.47
2022-08-21T08:13:40.810Z,-143.47
2022-08-21T08:16:44.269Z,-143.47
2022-08-21T08:19:49.440Z,-143.47
2022-08-21T08:22:52.976Z,-143.47
2022-08-21T08:25:56.269Z,-143.47
2022-08-21T08:29:01.013Z,-143.47
2022-08-21T08:32:06.018Z,-143.47
2022-08-21T08:35:10.586Z,-143.47
2022-08-21T08:38:17.885Z,-143.47
2022-08-21T08:41:38.667Z,17.63
2022-08-21T08:44:43.241Z,16.71
2022-08-21T08:47:51.065Z,17.70
2022-08-21T08:50:57.895Z,16.94
2022-08-21T08:54:05.110Z,16.33
2022-08-21T08:57:16.355Z,16.67
2022-08-21T09:00:22.983Z,16.68
2022-08-21T09:03:27.419Z,17.09
2022-08-21T09:06:52.443Z,16.86
2022-08-21T09:10:06.406Z,17.90
2022-08-21T09:13:21.200Z,17.20
2022-08-21T09:16:36.291Z,-143.47
2022-08-21T09:19:53.161Z,-143.47
2022-08-21T09:23:09.521Z,-143.47
2022-08-21T09:26:15.842Z,-143.47
2022-08-21T09:29:28.082Z,-143.47
2022-08-21T09:34:33.965Z,18.34
2022-08-21T09:37:49.504Z,18.79
2022-08-21T09:41:03.203Z,18.04
2022-08-21T09:44:09.027Z,18.05
2022-08-21T09:47:14.526Z,18.85
2022-08-21T09:50:21.892Z,17.99
2022-08-21T09:53:34.991Z,18.62
2022-08-21T09:56:58.601Z,19.12
2022-08-21T10:00:12.304Z,19.08
2022-08-21T10:03:25.643Z,18.82
2022-08-21T10:06:30.982Z,19.25
2022-08-21T10:09:34.204Z,18.58
2022-08-21T10:12:48.829Z,18.61
2022-08-21T10:15:59.588Z,18.92
2022-08-21T10:19:17.499Z,18.93
2022-08-21T10:22:34.829Z,19.39
2022-08-21T10:25:56.413Z,19.25
2022-08-21T10:29:22.400Z,19.87
2022-08-21T10:32:42.395Z,19.76
2022-08-21T10:35:53.662Z,20.21
2022-08-21T10:39:26.677Z,20.46
2022-08-21T10:42:39.662Z,20.58
2022-08-21T10:45:54.561Z,20.67
2022-08-21T10:49:00.949Z,20.77
2022-08-21T10:52:22.698Z,20.66
2022-08-21T10:55:36.191Z,20.44
2022-08-21T10:58:44.968Z,20.69
2022-08-21T11:01:55.103Z,20.55
2022-08-21T11:05:05.169Z,20.82
2022-08-21T11:08:14.334Z,21.08
2022-08-21T11:11:24.633Z,22.12
2022-08-21T11:14:40.714Z,21.93
2022-08-21T11:17:59.454Z,21.83
2022-08-21T11:21:17.737Z,21.90
2022-08-21T11:24:32.975Z,21.74
2022-08-21T11:27:43.091Z,21.14
2022-08-21T11:30:59.952Z,21.21
2022-08-21T11:34:14.705Z,21.99
2022-08-21T11:37:28.877Z,22.32
2022-08-21T11:41:01.899Z,22.11
2022-08-21T11:44:23.749Z,22.36
2022-08-21T11:47:39.503Z,22.42
2022-08-21T11:50:44.890Z,22.26
2022-08-21T11:53:55.538Z,22.33
2022-08-21T11:57:04.149Z,22.76
2022-08-21T12:00:16.223Z,22.38
2022-08-21T12:03:27.903Z,22.39
2022-08-21T12:06:34.826Z,22.03
2022-08-21T12:09:39.566Z,22.65
2022-08-21T12:12:45.270Z,23.18
2022-08-21T12:15:49.808Z,22.88
2022-08-21T12:19:05.363Z,22.50
2022-08-21T12:22:15.873Z,22.69
2022-08-21T12:25:22.063Z,22.50
2022-08-21T12:28:26.808Z,22.28
2022-08-21T12:31:31.572Z,22.83
2022-08-21T12:34:38.850Z,23.00
2022-08-21T12:37:45.205Z,23.27
2022-08-21T12:40:53.081Z,23.66
2022-08-21T12:44:01.135Z,22.67
2022-08-21T12:47:14.665Z,22.57
2022-08-21T12:50:23.485Z,22.84
2022-08-21T12:53:32.449Z,23.16
2022-08-21T12:56:37.081Z,23.36
2022-08-21T12:59:41.312Z,23.46
2022-08-21T13:02:51.723Z,24.05
2022-08-21T13:05:55.299Z,23.39
2022-08-21T13:09:07.057Z,23.20
2022-08-21T13:12:10.869Z,23.18
2022-08-21T13:15:14.674Z,23.59
2022-08-21T13:18:25.396Z,23.40
2022-08-21T13:21:34.070Z,23.78
2022-08-21T13:24:42.802Z,23.20
2022-08-21T13:27:58.056Z,23.00
2022-08-21T13:31:02.467Z,23.03
2022-08-21T13:34:09.542Z,24.06
2022-08-21T13:37:13.776Z,22.97
2022-08-21T13:40:22.721Z,23.32
2022-08-21T13:43:30.657Z,23.69
2022-08-21T13:46:37.880Z,24.40
2022-08-21T13:49:45.427Z,24.03
2022-08-21T13:52:55.720Z,23.36
2022-08-21T13:56:01.130Z,23.08
2022-08-21T13:59:05.791Z,22.89
2022-08-21T14:02:15.847Z,22.82
2022-08-21T14:05:34.182Z,23.22
2022-08-21T14:08:42.231Z,23.20
2022-08-21T14:11:45.748Z,23.40
2022-08-21T14:14:49.163Z,23.88
2022-08-21T14:17:53.123Z,23.32
2022-08-21T14:21:10.183Z,23.91
2022-08-21T14:24:19.405Z,23.69
2022-08-21T14:27:32.815Z,23.91
2022-08-21T14:30:46.808Z,23.84
2022-08-21T14:33:52.137Z,23.60
2022-08-21T14:36:58.027Z,23.63
2022-08-21T14:40:03.954Z,23.70
2022-08-21T14:43:09.069Z,23.66
2022-08-21T14:46:20.555Z,23.88
2022-08-21T14:49:23.901Z,23.89
2022-08-21T14:52:28.605Z,23.82
2022-08-21T14:55:55.257Z,24.07
2022-08-21T14:59:07.633Z,24.02
2022-08-21T15:02:12.010Z,23.94
2022-08-21T15:05:15.721Z,23.76
2022-08-21T15:08:28.970Z,23.56
2022-08-21T15:11:42.128Z,23.76
2022-08-21T15:14:46.177Z,23.90
2022-08-21T15:17:49.403Z,24.01
2022-08-21T15:20:52.748Z,24.23
2022-08-21T15:23:57.330Z,24.03
2022-08-21T15:27:03.143Z,23.90
2022-08-21T15:30:07.363Z,23.81
2022-08-21T15:34:35.209Z,24.04
2022-08-21T15:37:38.488Z,24.03
2022-08-21T15:40:51.553Z,24.03
2022-08-21T15:43:55.535Z,23.91
2022-08-21T15:47:00.797Z,24.09
2022-08-21T15:50:08.280Z,23.93
2022-08-21T15:53:12.464Z,24.31
2022-08-21T15:56:22.816Z,23.73
2022-08-21T15:59:27.780Z,24.03
2022-08-21T16:02:33.275Z,23.96
2022-08-21T16:05:39.784Z,23.62
2022-08-21T16:08:43.333Z,23.76
2022-08-21T16:11:46.898Z,23.82
2022-08-21T16:14:51.388Z,23.78
2022-08-21T16:17:56.657Z,23.66
2022-08-21T16:21:01.327Z,23.68
2022-08-21T16:24:05.229Z,23.90
2022-08-21T16:27:08.739Z,23.59
2022-08-21T16:30:15.298Z,23.52
2022-08-21T16:33:24.957Z,23.68
2022-08-21T16:36:29.972Z,23.88
2022-08-21T16:39:33.366Z,23.71
2022-08-21T16:42:37.641Z,23.48
2022-08-21T16:45:45.017Z,23.41
2022-08-21T16:48:48.068Z,23.89
2022-08-21T16:51:52.618Z,23.42
2022-08-21T16:54:56.240Z,23.34
2022-08-21T16:58:01.069Z,23.42
2022-08-21T17:01:09.018Z,23.06
2022-08-21T17:04:12.432Z,22.83
2022-08-21T17:07:16.964Z,22.99
2022-08-21T17:10:20.465Z,22.74
2022-08-21T17:13:24.184Z,22.61
2022-08-21T17:16:27.950Z,22.59
2022-08-21T17:19:33.508Z,22.59
2022-08-21T17:22:38.684Z,22.81
2022-08-21T17:25:45.085Z,22.61
2022-08-21T17:28:51.846Z,22.32
2022-08-21T17:31:58.469Z,22.13
2022-08-21T17:35:05.960Z,21.82
2022-08-21T17:38:11.536Z,21.77
2022-08-21T17:41:20.311Z,21.63
2022-08-21T17:44:23.810Z,21.55
2022-08-21T17:47:27.188Z,21.24
2022-08-21T17:50:30.548Z,21.19
2022-08-21T17:53:35.158Z,20.98
2022-08-21T17:56:42.136Z,20.94
2022-08-21T17:59:45.582Z,20.94
2022-08-21T18:02:53.203Z,20.69
2022-08-21T18:05:57.013Z,20.67
2022-08-21T18:09:01.635Z,20.35
2022-08-21T18:12:06.629Z,20.06
2022-08-21T18:15:11.838Z,20.25
2022-08-21T18:18:15.780Z,19.94
2022-08-21T18:21:19.336Z,19.92
2022-08-21T18:24:25.156Z,19.88
2022-08-21T18:27:29.855Z,19.67
2022-08-21T18:30:34.535Z,19.49
2022-08-21T18:33:38.647Z,19.44
2022-08-21T18:36:41.960Z,19.17
2022-08-21T18:39:46.859Z,19.22
2022-08-21T18:42:55.888Z,19.12
2022-08-21T18:45:59.510Z,19.04
2022-08-21T18:49:02.824Z,18.99
2022-08-21T18:52:06.901Z,18.81
2022-08-21T18:55:14.763Z,18.86
2022-08-21T18:58:18.523Z,18.62
2022-08-21T19:01:21.852Z,18.44
2022-08-21T19:04:43.820Z,18.47
2022-08-21T19:07:48.324Z,18.51
2022-08-21T19:10:57.311Z,18.40
2022-08-21T19:14:00.521Z,18.36
2022-08-21T19:17:05.267Z,18.24
2022-08-21T19:20:16.740Z,18.22
2022-08-21T19:23:30.102Z,18.27
2022-08-21T19:26:35.735Z,18.19
2022-08-21T19:29:40.913Z,18.14
2022-08-21T19:32:47.991Z,17.96
2022-08-21T19:39:15.553Z,17.76
2022-08-21T19:42:21.987Z,17.91
2022-08-21T19:45:39.393Z,17.70
2022-08-21T19:48:43.234Z,17.63
2022-08-21T19:51:50.874Z,17.44
2022-08-21T19:54:54.169Z,17.58
2022-08-21T19:57:58.914Z,17.48
2022-08-21T20:01:11.507Z,17.45
2022-08-21T20:04:19.972Z,17.22
2022-08-21T20:07:26.760Z,17.31
2022-08-21T20:10:47.222Z,17.11
2022-08-21T20:13:55.464Z,17.28
2022-08-21T20:17:04.854Z,17.10
2022-08-21T20:20:09.122Z,17.12
2022-08-21T20:23:15.836Z,17.13
2022-08-21T20:26:20.584Z,17.15
2022-08-21T20:29:29.875Z,16.94
2022-08-21T20:32:39.421Z,16.86
2022-08-21T20:35:49.930Z,16.75
2022-08-21T20:38:54.026Z,16.63
2022-08-21T20:41:58.014Z,16.43
2022-08-21T20:45:08.227Z,16.54
2022-08-21T20:48:15.182Z,16.11
2022-08-21T20:51:25.686Z,16.33
2022-08-21T20:54:36.647Z,16.26
2022-08-21T20:57:51.126Z,16.17
2022-08-21T21:00:59.854Z,16.30
2022-08-21T21:04:09.881Z,16.24
2022-08-21T21:07:19.233Z,16.06
2022-08-21T21:10:37.074Z,15.77
2022-08-21T21:13:48.632Z,16.13
2022-08-21T21:16:58.701Z,15.83
2022-08-21T21:20:10.093Z,15.80
2022-08-21T21:23:19.196Z,15.89
2022-08-21T21:26:36.940Z,16.11
2022-08-21T21:29:56.715Z,16.16
2022-08-21T21:34:42.967Z,16.05
2022-08-21T21:38:07.141Z,15.97
2022-08-21T21:41:36.293Z,15.74
2022-08-21T21:45:08.452Z,15.86
2022-08-21T21:48:28.698Z,16.05
2022-08-21T21:52:10.138Z,15.86
2022-08-21T21:55:30.772Z,15.63
2022-08-21T21:58:57.259Z,15.65
2022-08-21T22:02:07.903Z,15.73
2022-08-21T22:05:27.363Z,15.86
2022-08-21T22:08:50.555Z,15.75
2022-08-21T22:12:08.125Z,15.47
2022-08-21T22:15:12.326Z,15.50
2022-08-21T22:18:33.723Z,15.30
2022-08-21T22:21:41.436Z,15.13
2022-08-21T22:24:51.453Z,15.22
2022-08-21T22:28:02.193Z,15.07
2022-08-21T22:31:18.068Z,15.08
2022-08-21T22:34:21.595Z,15.03
2022-08-21T22:37:35.811Z,14.93
2022-08-21T22:40:40.438Z,14.94
2022-08-21T22:43:56.534Z,14.98
2022-08-21T22:47:01.918Z,14.97
2022-08-21T22:50:08.261Z,15.08
2022-08-21T22:53:24.753Z,15.03
2022-08-21T22:56:35.903Z,15.01
2022-08-21T22:59:52.088Z,15.02
2022-08-21T23:03:00.430Z,14.87
2022-08-21T23:06:23.983Z,14.86
2022-08-21T23:09:34.758Z,14.83
2022-08-21T23:12:43.884Z,14.86
2022-08-21T23:16:02.522Z,14.96
2022-08-21T23:19:13.004Z,14.80
2022-08-21T23:22:33.022Z,14.93
2022-08-21T23:25:52.832Z,14.67
2022-08-21T23:29:10.302Z,14.50
2022-08-21T23:32:35.459Z,14.57
2022-08-21T23:36:02.985Z,14.47
2022-08-21T23:39:20.643Z,14.27
2022-08-21T23:42:45.710Z,14.00
2022-08-21T23:46:04.631Z,14.41
2022-08-21T23:49:27.119Z,14.55
2022-08-21T23:52:42.928Z,14.22
2022-08-21T23:56:01.645Z,14.37
2022-08-21T23:59:16.864Z,14.38
